Time;durP1;ratioP1;P1;durP2;ratioP2;P2;SDS_P1;SDS_P2;PMS_P1;PMS_P2;Temp;Humidity;BMP_temperature;BMP_pressure;BME280_temperature;BME280_humidity;BME280_pressure;Samples;Min_cycle;Max_cycle;Signal;HPM_P1;HPM_P2
2023/09/18 00:00:58;;;;;;;10.20;4.00;;;19.80;99.90;;;;;;5000396;28;20440;-90
2023/09/18 00:03:44;;;;;;;5.27;3.80;;;19.80;99.90;;;;;;4997783;28;20483;-90
2023/09/18 00:06:30;;;;;;;5.23;3.20;;;19.80;99.90;;;;;;4988006;28;20461;-90
2023/09/18 00:09:16;;;;;;;6.40;3.20;;;19.90;99.90;;;;;;4988321;28;20525;-90
2023/09/18 00:12:01;;;;;;;4.30;3.90;;;19.90;99.90;;;;;;4992309;28;20480;-90
2023/09/18 00:14:49;;;;;;;4.30;3.60;;;19.90;99.90;;;;;;4991079;28;20455;-91
2023/09/18 00:17:36;;;;;;;7.53;3.40;;;19.90;99.90;;;;;;4996737;28;20444;-90
2023/09/18 00:20:26;;;;;;;7.60;3.97;;;19.90;99.90;;;;;;4991827;28;20792;-91
2023/09/18 00:23:19;;;;;;;4.57;3.20;;;19.90;99.90;;;;;;4989012;28;20579;-91
2023/09/18 00:26:05;;;;;;;7.50;3.73;;;20.00;99.90;;;;;;4985659;28;20501;-90
2023/09/18 00:28:51;;;;;;;8.17;3.63;;;19.90;99.90;;;;;;4992918;28;20445;-91
2023/09/18 00:31:37;;;;;;;8.60;4.63;;;20.00;99.90;;;;;;4993727;28;20454;-90
2023/09/18 00:34:24;;;;;;;6.93;5.20;;;19.80;99.90;;;;;;4988471;28;20462;-90
2023/09/18 00:37:12;;;;;;;5.67;4.17;;;19.80;99.90;;;;;;4992168;28;20492;-90
2023/09/18 00:39:57;;;;;;;9.73;4.07;;;19.80;99.90;;;;;;4992805;28;20608;-90
2023/09/18 00:42:43;;;;;;;7.27;3.20;;;19.80;99.90;;;;;;4999862;28;20498;-90
2023/09/18 00:45:30;;;;;;;5.30;3.27;;;19.80;99.90;;;;;;4994300;28;20967;-90
2023/09/18 00:48:16;;;;;;;10.50;3.53;;;19.80;99.90;;;;;;4996032;28;20440;-91
2023/09/18 00:51:04;;;;;;;10.33;4.40;;;19.80;99.90;;;;;;4995171;28;20445;-91
2023/09/18 00:53:50;;;;;;;10.90;3.83;;;19.80;99.90;;;;;;4984955;28;20518;-90
2023/09/18 00:56:38;;;;;;;7.73;3.20;;;19.90;99.90;;;;;;5001176;28;20452;-90
2023/09/18 00:59:24;;;;;;;10.53;4.50;;;19.90;99.90;;;;;;4988295;28;20481;-91
2023/09/18 01:02:09;;;;;;;10.93;3.67;;;19.90;99.90;;;;;;4996906;28;20473;-91
2023/09/18 01:04:56;;;;;;;6.60;4.60;;;19.80;99.90;;;;;;4994357;28;20449;-90
2023/09/18 01:07:44;;;;;;;4.30;3.40;;;19.80;99.90;;;;;;4993573;28;20439;-91
2023/09/18 01:10:37;;;;;;;8.53;3.47;;;19.80;99.90;;;;;;4996178;28;20450;-91
2023/09/18 01:13:29;;;;;;;7.40;4.20;;;19.80;99.90;;;;;;4994773;28;20474;-91
2023/09/18 01:16:22;;;;;;;5.20;4.00;;;20.00;99.90;;;;;;4994732;28;20445;-90
2023/09/18 01:19:09;;;;;;;6.17;3.30;;;20.10;99.90;;;;;;4993078;28;20533;-91
2023/09/18 01:21:54;;;;;;;6.50;3.70;;;20.10;99.90;;;;;;4994746;28;20475;-90
2023/09/18 01:24:42;;;;;;;5.77;3.60;;;20.10;99.90;;;;;;4993159;28;20472;-92
2023/09/18 01:27:28;;;;;;;6.77;3.53;;;20.00;99.90;;;;;;4987664;28;20518;-91
2023/09/18 01:30:15;;;;;;;4.93;3.43;;;20.00;99.90;;;;;;4995975;28;20920;-91
2023/09/18 01:33:02;;;;;;;5.70;3.57;;;20.10;99.90;;;;;;4998260;28;21016;-91
2023/09/18 01:35:48;;;;;;;8.10;3.20;;;20.10;99.90;;;;;;4988778;28;20451;-91
2023/09/18 01:38:34;;;;;;;6.20;3.30;;;20.10;99.90;;;;;;4996950;28;20445;-91
2023/09/18 01:41:22;;;;;;;4.20;2.77;;;20.10;99.90;;;;;;4991352;28;20466;-92
2023/09/18 01:44:07;;;;;;;8.30;5.20;;;20.10;99.90;;;;;;4988687;28;20579;-90
2023/09/18 01:46:55;;;;;;;5.10;3.30;;;20.10;99.90;;;;;;4993112;28;20954;-90
2023/09/18 01:49:42;;;;;;;5.50;4.03;;;20.00;99.90;;;;;;4997752;28;20443;-91
2023/09/18 01:52:27;;;;;;;6.80;3.67;;;20.10;99.90;;;;;;4992365;28;20474;-91
2023/09/18 01:55:13;;;;;;;10.40;3.57;;;20.10;99.90;;;;;;4989044;28;20446;-91
2023/09/18 01:58:01;;;;;;;3.97;3.37;;;20.20;99.90;;;;;;4989104;28;20809;-91
2023/09/18 02:00:50;;;;;;;5.43;3.83;;;20.20;99.90;;;;;;4992616;28;20453;-90
2023/09/18 02:03:35;;;;;;;7.23;4.00;;;20.30;99.90;;;;;;4988343;28;20477;-91
2023/09/18 02:06:21;;;;;;;5.73;3.67;;;20.30;99.90;;;;;;4995294;28;20486;-91
2023/09/18 02:09:08;;;;;;;4.60;3.33;;;20.40;99.90;;;;;;4995590;28;20436;-90
2023/09/18 02:11:53;;;;;;;35.97;4.40;;;20.50;99.90;;;;;;4989804;28;20528;-90
2023/09/18 02:14:40;;;;;;;5.80;3.43;;;20.60;99.90;;;;;;4988462;28;20450;-90
2023/09/18 02:17:26;;;;;;;4.73;3.33;;;20.90;99.90;;;;;;4989597;28;20451;-90
2023/09/18 02:20:12;;;;;;;6.77;3.87;;;21.10;99.90;;;;;;4987922;28;21236;-90
2023/09/18 02:23:07;;;;;;;8.90;4.13;;;21.20;99.90;;;;;;4997935;28;20485;-90
2023/09/18 02:25:57;;;;;;;11.70;4.23;;;21.30;99.90;;;;;;4994860;28;20523;-90
2023/09/18 02:28:43;;;;;;;9.60;3.60;;;21.30;99.90;;;;;;4987998;28;23291;-91
2023/09/18 02:31:30;;;;;;;6.30;3.53;;;21.30;99.90;;;;;;4999519;28;20442;-91
2023/09/18 02:34:15;;;;;;;22.87;4.50;;;21.10;99.90;;;;;;4994654;28;20456;-91
2023/09/18 02:37:01;;;;;;;11.70;4.57;;;21.00;99.90;;;;;;4993998;28;20526;-91
2023/09/18 02:39:46;;;;;;;12.50;3.97;;;20.70;99.90;;;;;;4998662;28;20580;-92
2023/09/18 02:42:32;;;;;;;10.13;4.10;;;20.60;99.90;;;;;;4994051;28;20570;-91
2023/09/18 02:45:18;;;;;;;7.40;3.80;;;20.50;99.90;;;;;;4986365;28;20504;-90
2023/09/18 02:48:07;;;;;;;6.50;4.70;;;20.40;99.90;;;;;;4988261;28;20484;-91
2023/09/18 02:50:53;;;;;;;7.77;4.30;;;20.40;99.90;;;;;;4993467;28;20415;-90
2023/09/18 02:53:38;;;;;;;12.47;4.80;;;20.30;99.90;;;;;;5004156;28;20469;-91
2023/09/18 02:56:24;;;;;;;8.60;4.90;;;20.20;99.90;;;;;;4995702;28;20421;-90
2023/09/18 02:59:10;;;;;;;6.67;3.80;;;20.10;99.90;;;;;;4994192;28;20523;-92
2023/09/18 03:01:56;;;;;;;5.93;4.23;;;19.90;99.90;;;;;;4994960;28;21006;-90
2023/09/18 03:04:43;;;;;;;4.90;3.97;;;19.90;99.90;;;;;;4993902;28;20489;-90
2023/09/18 03:07:29;;;;;;;6.60;4.20;;;19.80;99.90;;;;;;4990402;28;20450;-91
2023/09/18 03:10:16;;;;;;;8.30;3.70;;;19.80;99.90;;;;;;5000321;28;20436;-90
2023/09/18 03:13:06;;;;;;;9.10;4.13;;;19.90;99.90;;;;;;5003545;28;20449;-91
2023/09/18 03:15:52;;;;;;;7.70;3.70;;;19.90;99.90;;;;;;4999639;28;20448;-90
2023/09/18 03:18:38;;;;;;;6.10;3.40;;;19.80;99.90;;;;;;4999099;28;22392;-90
2023/09/18 03:21:25;;;;;;;5.27;4.17;;;19.80;99.90;;;;;;4984647;28;20483;-91
2023/09/18 03:24:11;;;;;;;6.70;4.40;;;19.70;99.90;;;;;;4996767;28;20489;-91
2023/09/18 03:26:57;;;;;;;7.73;3.83;;;19.60;99.90;;;;;;4989541;28;20499;-91
2023/09/18 03:29:42;;;;;;;8.50;4.47;;;19.70;99.90;;;;;;5002582;28;20495;-91
2023/09/18 03:32:28;;;;;;;12.60;5.10;;;19.60;99.90;;;;;;4995166;28;20473;-90
2023/09/18 03:35:17;;;;;;;9.57;4.70;;;19.50;99.90;;;;;;4986825;28;20428;-90
2023/09/18 03:38:04;;;;;;;12.77;5.43;;;19.50;99.90;;;;;;4996280;28;20854;-90
2023/09/18 03:40:50;;;;;;;9.23;4.20;;;19.50;99.90;;;;;;4994491;28;20933;-90
2023/09/18 03:43:38;;;;;;;8.00;4.90;;;19.50;99.90;;;;;;4994216;28;20489;-91
2023/09/18 03:46:24;;;;;;;6.70;4.70;;;19.60;99.90;;;;;;4988742;28;20442;-90
2023/09/18 03:49:10;;;;;;;6.13;4.50;;;19.60;99.90;;;;;;5000431;28;20985;-90
2023/09/18 03:51:55;;;;;;;7.00;4.53;;;19.60;99.90;;;;;;4995699;28;20468;-90
2023/09/18 03:54:42;;;;;;;8.13;4.40;;;19.60;99.90;;;;;;4991365;28;20428;-90
2023/09/18 03:57:28;;;;;;;8.13;4.80;;;19.70;99.90;;;;;;4988394;28;20469;-90
2023/09/18 04:00:14;;;;;;;9.93;4.87;;;19.70;99.90;;;;;;4992278;28;20444;-90
2023/09/18 04:03:00;;;;;;;6.70;4.90;;;19.70;99.90;;;;;;4985366;28;20687;-89
2023/09/18 04:05:45;;;;;;;6.27;4.93;;;19.70;99.90;;;;;;4989232;28;20804;-89
2023/09/18 04:08:31;;;;;;;8.77;3.70;;;19.70;99.90;;;;;;4992805;28;20464;-89
2023/09/18 04:11:26;;;;;;;7.13;4.30;;;19.70;99.90;;;;;;5001682;28;20423;-92
2023/09/18 04:14:11;;;;;;;5.17;4.50;;;19.70;99.90;;;;;;4986626;28;20561;-88
2023/09/18 04:16:57;;;;;;;15.50;4.77;;;19.70;99.90;;;;;;4998540;28;20596;-90
2023/09/18 04:19:46;;;;;;;11.53;3.87;;;19.80;99.90;;;;;;5001195;28;20904;-90
2023/09/18 04:22:31;;;;;;;8.57;3.50;;;20.20;99.90;;;;;;5000585;28;20455;-91
2023/09/18 04:25:19;;;;;;;12.17;3.70;;;20.30;99.90;;;;;;5005300;28;20411;-90
2023/09/18 04:28:06;;;;;;;10.90;5.10;;;20.50;99.90;;;;;;4993736;28;20424;-89
2023/09/18 04:30:52;;;;;;;10.00;3.60;;;20.60;99.90;;;;;;4984243;28;20509;-88
2023/09/18 04:33:38;;;;;;;15.47;4.10;;;20.60;99.90;;;;;;4989348;28;20480;-89
2023/09/18 04:36:24;;;;;;;15.60;4.80;;;20.70;99.90;;;;;;5002439;28;20454;-89
2023/09/18 04:39:10;;;;;;;12.33;4.83;;;20.60;99.90;;;;;;4997827;28;20866;-89
2023/09/18 04:41:55;;;;;;;12.87;5.00;;;20.60;99.90;;;;;;4990306;28;20465;-89
2023/09/18 04:44:42;;;;;;;11.17;4.87;;;20.50;99.90;;;;;;4990026;28;20588;-90
2023/09/18 04:47:28;;;;;;;17.80;4.70;;;20.30;99.90;;;;;;4993413;28;20445;-90
2023/09/18 04:50:14;;;;;;;14.57;4.53;;;20.20;99.90;;;;;;4988649;28;20919;-88
2023/09/18 04:53:03;;;;;;;14.17;4.37;;;20.00;99.90;;;;;;4995831;28;20830;-90
2023/09/18 04:55:50;;;;;;;18.50;4.13;;;19.90;99.90;;;;;;4998213;28;20453;-89
2023/09/18 04:58:37;;;;;;;11.40;5.70;;;19.80;99.90;;;;;;4997639;28;20570;-90
2023/09/18 05:01:24;;;;;;;13.40;4.70;;;19.80;99.90;;;;;;4975967;28;20940;-89
2023/09/18 05:04:10;;;;;;;7.07;4.20;;;19.60;99.90;;;;;;4987344;28;20497;-90
2023/09/18 05:06:56;;;;;;;15.10;4.97;;;19.50;99.90;;;;;;4991646;28;20449;-89
2023/09/18 05:09:41;;;;;;;7.40;3.57;;;19.50;99.90;;;;;;4994230;28;20421;-89
2023/09/18 05:12:27;;;;;;;10.87;3.77;;;19.30;99.90;;;;;;4989458;28;20472;-89
2023/09/18 05:15:13;;;;;;;12.93;4.10;;;19.40;99.90;;;;;;4998202;28;20464;-89
2023/09/18 05:18:01;;;;;;;11.73;3.60;;;19.40;99.90;;;;;;4991948;28;20524;-89
2023/09/18 05:20:47;;;;;;;13.17;3.80;;;19.40;99.90;;;;;;4995063;28;20444;-89
2023/09/18 05:23:33;;;;;;;9.17;4.30;;;19.30;99.90;;;;;;4989434;28;20480;-89
2023/09/18 05:26:19;;;;;;;9.80;3.80;;;19.30;99.90;;;;;;4983359;28;20508;-89
2023/09/18 05:29:05;;;;;;;6.90;3.60;;;19.20;99.90;;;;;;4985781;28;20832;-89
2023/09/18 05:31:51;;;;;;;7.30;3.93;;;19.20;99.90;;;;;;4992232;28;20808;-89
2023/09/18 05:34:37;;;;;;;16.20;4.50;;;19.20;99.90;;;;;;4986040;28;20423;-89
2023/09/18 05:37:23;;;;;;;5.70;3.40;;;19.30;99.90;;;;;;4993150;28;20521;-89
2023/09/18 05:40:10;;;;;;;12.43;3.33;;;19.20;99.90;;;;;;4996223;28;20641;-89
2023/09/18 05:42:57;;;;;;;7.60;3.40;;;19.10;99.90;;;;;;4989420;28;21005;-89
2023/09/18 05:45:43;;;;;;;8.77;4.20;;;19.10;99.90;;;;;;4988120;28;20470;-89
2023/09/18 05:48:29;;;;;;;10.10;3.30;;;19.10;99.90;;;;;;4989098;28;20821;-89
2023/09/18 05:51:17;;;;;;;7.50;3.67;;;19.10;99.90;;;;;;4983333;28;20457;-89
2023/09/18 05:54:03;;;;;;;10.67;4.17;;;19.10;99.90;;;;;;4990599;28;20439;-90
2023/09/18 05:56:49;;;;;;;11.87;3.27;;;19.10;99.90;;;;;;4987892;28;20445;-90
2023/09/18 05:59:34;;;;;;;13.63;3.73;;;19.20;99.90;;;;;;4999259;28;20592;-89
2023/09/18 06:02:20;;;;;;;10.80;4.17;;;19.30;99.90;;;;;;5006121;28;21121;-89
2023/09/18 06:05:07;;;;;;;9.17;3.57;;;19.30;99.90;;;;;;4990994;28;20519;-90
2023/09/18 06:07:54;;;;;;;16.50;3.80;;;19.40;99.90;;;;;;4994487;28;20467;-89
2023/09/18 06:10:40;;;;;;;8.27;4.90;;;19.40;99.90;;;;;;4994473;28;20469;-90
2023/09/18 06:13:26;;;;;;;10.93;3.70;;;19.40;99.90;;;;;;4994611;28;20457;-89
2023/09/18 06:16:12;;;;;;;8.30;3.40;;;19.50;99.90;;;;;;4983392;28;20527;-89
2023/09/18 06:19:00;;;;;;;16.73;4.13;;;19.50;99.90;;;;;;4997002;28;20992;-89
2023/09/18 06:21:45;;;;;;;10.03;3.50;;;19.60;99.90;;;;;;5005661;28;20979;-90
2023/09/18 06:24:33;;;;;;;13.50;4.70;;;19.50;99.90;;;;;;5000864;28;20497;-89
2023/09/18 06:27:19;;;;;;;9.80;4.30;;;19.60;99.90;;;;;;4998841;28;20467;-90
2023/09/18 06:30:06;;;;;;;10.43;3.87;;;19.60;99.90;;;;;;4989508;28;20448;-90
2023/09/18 06:32:55;;;;;;;16.70;4.70;;;19.70;99.90;;;;;;4987000;28;20491;-89
2023/09/18 06:35:41;;;;;;;10.77;3.70;;;19.60;99.90;;;;;;5001008;28;20499;-90
2023/09/18 06:38:27;;;;;;;15.70;4.17;;;19.60;99.90;;;;;;4995022;28;20457;-89
2023/09/18 06:41:14;;;;;;;15.80;3.97;;;19.60;99.90;;;;;;4995879;28;20418;-90
2023/09/18 06:44:02;;;;;;;12.00;4.00;;;19.70;99.90;;;;;;4994667;28;20472;-89
2023/09/18 06:46:48;;;;;;;8.37;3.50;;;19.70;99.90;;;;;;4987550;28;20484;-90
2023/09/18 06:49:34;;;;;;;13.87;3.57;;;19.80;99.90;;;;;;4988860;28;20449;-90
2023/09/18 06:52:20;;;;;;;9.23;3.53;;;19.80;99.90;;;;;;4987260;28;20473;-90
2023/09/18 06:55:06;;;;;;;10.50;4.20;;;19.90;99.90;;;;;;4998612;28;20511;-90
2023/09/18 06:57:53;;;;;;;9.30;4.00;;;20.00;99.90;;;;;;4996522;28;20855;-90
2023/09/18 07:00:39;;;;;;;18.87;4.80;;;20.00;99.90;;;;;;4987764;28;20462;-90
2023/09/18 07:03:25;;;;;;;17.03;5.23;;;20.00;99.90;;;;;;5002131;28;20580;-90
2023/09/18 07:06:11;;;;;;;9.13;3.87;;;20.00;99.90;;;;;;4989985;28;20492;-89
2023/09/18 07:08:56;;;;;;;12.87;3.80;;;20.10;99.90;;;;;;4986763;28;20565;-90
2023/09/18 07:11:42;;;;;;;9.03;3.23;;;20.10;99.90;;;;;;4982524;28;20456;-89
2023/09/18 07:14:29;;;;;;;9.77;3.50;;;20.10;99.90;;;;;;4987400;28;20968;-90
2023/09/18 07:17:15;;;;;;;12.90;3.57;;;20.00;99.90;;;;;;4988165;28;20435;-88
2023/09/18 07:20:01;;;;;;;8.70;3.80;;;20.00;99.90;;;;;;4983101;28;20457;-89
2023/09/18 07:22:53;;;;;;;11.67;3.00;;;20.10;99.90;;;;;;4985814;28;20442;-89
2023/09/18 07:25:39;;;;;;;7.10;3.60;;;20.10;99.90;;;;;;4989548;28;20464;-89
2023/09/18 07:28:25;;;;;;;5.93;3.10;;;20.10;99.90;;;;;;4979874;28;20555;-90
2023/09/18 07:31:14;;;;;;;14.67;3.10;;;20.10;99.90;;;;;;4987475;28;20454;-89
2023/09/18 07:34:00;;;;;;;11.23;3.13;;;20.20;99.90;;;;;;4988505;28;20469;-89
2023/09/18 07:36:46;;;;;;;11.87;3.00;;;20.20;99.90;;;;;;4988692;28;20432;-89
2023/09/18 07:39:32;;;;;;;9.30;3.03;;;20.30;99.90;;;;;;4983796;28;20454;-90
2023/09/18 07:42:19;;;;;;;8.60;2.90;;;20.30;99.90;;;;;;4989473;28;20877;-90
2023/09/18 07:45:05;;;;;;;8.03;3.40;;;20.40;99.90;;;;;;4987666;28;20568;-89
2023/09/18 07:47:52;;;;;;;8.03;3.10;;;20.40;99.90;;;;;;4986716;28;20441;-90
2023/09/18 07:50:38;;;;;;;15.60;5.10;;;20.40;99.90;;;;;;4989441;28;20453;-89
2023/09/18 07:53:24;;;;;;;8.43;2.27;;;20.50;99.90;;;;;;4981064;28;20472;-90
2023/09/18 07:56:09;;;;;;;11.53;3.20;;;20.50;99.90;;;;;;4987538;28;20441;-91
2023/09/18 07:58:56;;;;;;;7.67;2.80;;;20.50;99.90;;;;;;4985267;28;20601;-90
2023/09/18 08:01:42;;;;;;;11.00;2.87;;;20.50;99.90;;;;;;4987738;28;20982;-90
2023/09/18 08:04:31;;;;;;;9.07;2.63;;;20.40;99.90;;;;;;4984873;28;20562;-89
2023/09/18 08:07:17;;;;;;;6.90;2.27;;;20.40;99.90;;;;;;4979236;28;20450;-89
2023/09/18 08:10:06;;;;;;;8.10;2.73;;;20.30;99.90;;;;;;4988438;28;20457;-89
2023/09/18 08:12:52;;;;;;;8.73;3.13;;;20.30;99.90;;;;;;4989038;28;22122;-88
2023/09/18 08:15:38;;;;;;;7.70;2.30;;;20.40;99.90;;;;;;4992154;28;20438;-89
2023/09/18 08:18:26;;;;;;;8.10;2.30;;;20.40;99.90;;;;;;4993246;28;20448;-89
2023/09/18 08:21:13;;;;;;;7.00;2.60;;;20.50;99.90;;;;;;4983487;28;20603;-89
2023/09/18 08:23:59;;;;;;;8.97;2.40;;;20.50;99.90;;;;;;4989795;28;20443;-89
2023/09/18 08:26:44;;;;;;;9.00;2.03;;;20.50;99.90;;;;;;4992676;28;20466;-90
2023/09/18 08:29:30;;;;;;;4.10;1.73;;;20.50;99.90;;;;;;4987865;28;20446;-89
2023/09/18 08:32:16;;;;;;;6.43;2.40;;;20.50;99.90;;;;;;4991449;28;20589;-89
2023/09/18 08:35:02;;;;;;;5.87;1.90;;;20.50;99.90;;;;;;4989503;28;20458;-89
2023/09/18 08:37:49;;;;;;;8.33;2.03;;;20.50;99.90;;;;;;4983574;28;20466;-89
2023/09/18 08:40:35;;;;;;;9.67;1.87;;;20.50;99.90;;;;;;4980021;28;20485;-90
2023/09/18 08:43:23;;;;;;;9.17;2.30;;;20.40;99.90;;;;;;4993371;28;20463;-90
2023/09/18 08:46:09;;;;;;;4.50;1.60;;;20.50;99.90;;;;;;4983562;28;20471;-89
2023/09/18 08:48:56;;;;;;;3.70;1.70;;;20.60;99.90;;;;;;4981498;28;20529;-89
2023/09/18 08:51:44;;;;;;;6.53;1.83;;;20.50;99.90;;;;;;4983787;28;20464;-90
2023/09/18 08:54:33;;;;;;;4.03;1.60;;;20.50;99.90;;;;;;4992410;28;20729;-89
2023/09/18 08:57:19;;;;;;;5.20;1.83;;;20.50;99.90;;;;;;4988138;28;20580;-89
2023/09/18 09:00:08;;;;;;;3.47;1.77;;;20.40;99.90;;;;;;4981407;28;20452;-90
2023/09/18 09:02:54;;;;;;;5.50;2.23;;;20.40;99.90;;;;;;4985246;28;20526;-89
2023/09/18 09:05:39;;;;;;;4.67;1.70;;;20.30;99.90;;;;;;4985712;28;20477;-89
2023/09/18 09:08:25;;;;;;;5.70;2.07;;;20.20;99.90;;;;;;4981159;28;20552;-89
2023/09/18 09:11:12;;;;;;;4.10;1.73;;;20.30;99.90;;;;;;4982692;28;20833;-89
2023/09/18 09:14:16;;;;;;;5.97;1.87;;;20.30;99.90;;;;;;4988076;28;20448;-90
2023/09/18 09:17:02;;;;;;;9.23;1.97;;;20.40;99.90;;;;;;4981037;28;20449;-89
2023/09/18 09:19:48;;;;;;;6.17;1.70;;;20.40;99.90;;;;;;4985970;28;20457;-89
2023/09/18 09:22:35;;;;;;;6.93;1.87;;;20.40;99.90;;;;;;4985392;28;20833;-89
2023/09/18 09:25:26;;;;;;;9.17;2.07;;;20.50;99.90;;;;;;4984622;28;20523;-89
2023/09/18 09:28:13;;;;;;;5.70;1.67;;;20.50;99.90;;;;;;4988546;28;20516;-89
2023/09/18 09:31:02;;;;;;;11.67;2.30;;;20.60;99.90;;;;;;4985140;28;20449;-89
2023/09/18 09:33:53;;;;;;;7.57;1.60;;;20.60;99.90;;;;;;4987009;28;20469;-89
2023/09/18 09:36:53;;;;;;;8.17;1.50;;;20.70;99.90;;;;;;4981058;28;20450;-90
2023/09/18 09:39:50;;;;;;;6.43;1.80;;;20.80;99.90;;;;;;4992342;28;20487;-90
2023/09/18 09:42:45;;;;;;;16.30;1.77;;;20.90;99.90;;;;;;4988148;28;20471;-90
2023/09/18 09:45:35;;;;;;;5.00;1.17;;;20.80;99.90;;;;;;4990720;28;20477;-90
2023/09/18 09:48:21;;;;;;;6.37;2.10;;;20.90;99.90;;;;;;4989519;28;20478;-89
2023/09/18 09:51:07;;;;;;;5.27;1.40;;;20.90;99.90;;;;;;4988398;28;20420;-90
2023/09/18 09:53:52;;;;;;;5.00;1.70;;;21.00;99.90;;;;;;4998736;22;20469;-71
2023/09/18 09:56:43;;;;;;;4.27;1.67;;;21.00;99.90;;;;;;4965727;28;20462;-70
2023/09/18 09:59:29;;;;;;;3.67;1.73;;;21.00;99.90;;;;;;4968589;28;20933;-71
2023/09/18 10:02:19;;;;;;;11.10;2.17;;;21.00;99.90;;;;;;4974858;28;20539;-70
2023/09/18 10:05:06;;;;;;;4.97;1.50;;;20.90;99.90;;;;;;4959524;28;20912;-71
2023/09/18 10:07:52;;;;;;;6.70;1.47;;;20.90;99.90;;;;;;4958695;28;20961;-71
2023/09/18 10:10:40;;;;;;;3.10;1.50;;;20.80;99.90;;;;;;4961229;28;20852;-70
2023/09/18 10:13:33;;;;;;;7.20;1.87;;;20.70;99.90;;;;;;4959714;28;20463;-71
2023/09/18 10:16:20;;;;;;;4.10;1.43;;;20.70;99.90;;;;;;4969470;28;20567;-70
2023/09/18 10:19:18;;;;;;;4.63;1.33;;;20.80;99.90;;;;;;4970915;28;20561;-71
2023/09/18 10:22:12;;;;;;;5.03;1.50;;;20.80;99.90;;;;;;4966820;28;21047;-71
2023/09/18 10:25:05;;;;;;;5.20;1.70;;;20.80;99.90;;;;;;4960462;28;20516;-70
2023/09/18 10:27:53;;;;;;;5.97;1.77;;;20.90;99.90;;;;;;4969157;28;20549;-71
2023/09/18 10:30:39;;;;;;;4.00;1.30;;;20.90;99.90;;;;;;4970973;28;20451;-70
2023/09/18 10:33:25;;;;;;;8.37;1.50;;;20.90;99.90;;;;;;4965895;28;20516;-70
2023/09/18 10:36:14;;;;;;;7.20;1.77;;;20.90;99.90;;;;;;4967648;28;20974;-70
2023/09/18 10:39:01;;;;;;;8.93;2.00;;;20.80;99.90;;;;;;4962775;28;20458;-70
2023/09/18 10:41:48;;;;;;;5.33;2.27;;;20.80;99.90;;;;;;4960844;28;20884;-70
2023/09/18 10:44:35;;;;;;;4.70;1.57;;;20.90;99.90;;;;;;4959639;28;20470;-70
2023/09/18 10:47:21;;;;;;;5.53;1.60;;;21.00;99.90;;;;;;4957728;28;20668;-70
2023/09/18 10:50:08;;;;;;;6.63;1.70;;;21.10;99.90;;;;;;4970194;28;20473;-71
2023/09/18 10:52:58;;;;;;;4.60;1.93;;;21.10;99.90;;;;;;4968362;28;20454;-70
2023/09/18 10:55:45;;;;;;;4.37;1.50;;;21.10;99.90;;;;;;4963417;28;20452;-71
2023/09/18 10:58:35;;;;;;;5.17;1.43;;;21.10;99.90;;;;;;4964337;28;20493;-71
2023/09/18 11:01:24;;;;;;;3.07;1.40;;;21.10;99.90;;;;;;4966301;28;20475;-70
2023/09/18 11:04:10;;;;;;;5.17;1.80;;;21.10;99.90;;;;;;4969974;28;20496;-71
2023/09/18 11:07:04;;;;;;;5.10;2.00;;;21.20;99.90;;;;;;4977190;28;20576;-70
2023/09/18 11:09:51;;;;;;;4.13;1.57;;;21.20;99.90;;;;;;4967041;28;20573;-71
2023/09/18 11:12:45;;;;;;;7.60;1.87;;;21.40;99.90;;;;;;4974447;28;20446;-71
2023/09/18 11:15:33;;;;;;;3.57;1.50;;;21.40;99.90;;;;;;4974923;28;20455;-71
2023/09/18 11:18:21;;;;;;;6.50;1.77;;;21.50;99.90;;;;;;4968758;28;20859;-71
2023/09/18 11:21:11;;;;;;;5.60;1.93;;;21.70;99.90;;;;;;4971415;28;20587;-71
2023/09/18 11:24:03;;;;;;;4.27;1.80;;;21.60;99.90;;;;;;4971581;28;20457;-70
2023/09/18 11:26:52;;;;;;;7.20;1.50;;;21.70;99.90;;;;;;4972724;28;20477;-71
2023/09/18 11:29:38;;;;;;;3.30;1.50;;;21.80;99.90;;;;;;4973387;28;20463;-70
2023/09/18 11:32:39;;;;;;;7.40;2.00;;;21.90;99.90;;;;;;4967576;28;21030;-71
2023/09/18 11:35:26;;;;;;;7.40;1.93;;;21.90;99.90;;;;;;4973276;28;20799;-70
2023/09/18 11:38:12;;;;;;;10.43;1.80;;;21.80;99.90;;;;;;4970494;28;20458;-71
2023/09/18 11:40:58;;;;;;;8.03;1.93;;;21.90;99.90;;;;;;4967692;28;21050;-70
2023/09/18 11:43:45;;;;;;;8.63;1.83;;;21.80;99.90;;;;;;4969977;28;20447;-71
2023/09/18 11:46:32;;;;;;;5.00;1.63;;;21.80;99.90;;;;;;4966273;28;20576;-70
2023/09/18 11:49:21;;;;;;;5.93;2.20;;;21.80;99.90;;;;;;4973781;28;20456;-70
2023/09/18 11:52:08;;;;;;;4.90;1.90;;;21.60;99.90;;;;;;4972139;28;20809;-71
2023/09/18 11:54:55;;;;;;;7.00;2.20;;;21.60;99.90;;;;;;4963139;28;20458;-70
2023/09/18 11:57:42;;;;;;;5.40;1.87;;;21.70;99.90;;;;;;4972302;28;20472;-71
2023/09/18 12:00:29;;;;;;;6.57;1.60;;;21.90;99.90;;;;;;4971215;28;20453;-71
2023/09/18 12:03:24;;;;;;;5.70;1.80;;;22.10;99.90;;;;;;4962258;28;20934;-70
2023/09/18 12:06:12;;;;;;;10.30;2.00;;;22.20;99.90;;;;;;4967337;28;20498;-71
2023/09/18 12:08:58;;;;;;;5.57;1.97;;;22.20;99.90;;;;;;4963910;28;20533;-71
2023/09/18 12:11:44;;;;;;;3.80;1.53;;;22.20;99.90;;;;;;4973181;28;20456;-71
2023/09/18 12:14:31;;;;;;;9.73;1.67;;;22.20;99.90;;;;;;4968844;28;20451;-71
2023/09/18 12:17:19;;;;;;;8.20;2.10;;;22.40;99.90;;;;;;4966246;28;20474;-71
2023/09/18 12:20:06;;;;;;;5.17;1.73;;;22.60;99.90;;;;;;4966689;28;20510;-71
2023/09/18 12:22:53;;;;;;;5.30;1.90;;;22.70;99.90;;;;;;4965246;28;20451;-70
2023/09/18 12:25:39;;;;;;;3.47;1.63;;;22.80;99.90;;;;;;4965748;28;20472;-71
2023/09/18 12:28:28;;;;;;;6.97;2.13;;;22.90;99.90;;;;;;4966393;28;20474;-71
2023/09/18 12:31:14;;;;;;;4.77;1.70;;;22.80;99.90;;;;;;4965080;28;20450;-71
2023/09/18 12:34:01;;;;;;;8.87;2.00;;;22.80;99.90;;;;;;4960235;28;20523;-70
2023/09/18 12:36:48;;;;;;;8.47;2.10;;;22.80;99.90;;;;;;4961635;28;20470;-70
2023/09/18 12:39:34;;;;;;;4.93;1.60;;;22.70;99.90;;;;;;4968056;28;21009;-70
2023/09/18 12:42:20;;;;;;;4.97;1.70;;;22.70;99.90;;;;;;4966057;28;20442;-70
2023/09/18 12:45:07;;;;;;;6.37;1.80;;;22.60;99.90;;;;;;4963979;28;20455;-70
2023/09/18 12:47:55;;;;;;;3.33;1.43;;;22.60;99.90;;;;;;4966559;28;20476;-70
2023/09/18 12:50:43;;;;;;;10.30;2.00;;;22.70;99.90;;;;;;4963993;28;20439;-70
2023/09/18 12:53:28;;;;;;;6.67;1.53;;;22.70;99.90;;;;;;4970650;28;20471;-70
2023/09/18 12:56:15;;;;;;;4.03;1.70;;;22.60;99.90;;;;;;4962980;28;20435;-69
2023/09/18 12:59:03;;;;;;;4.30;1.37;;;22.60;99.90;;;;;;4966009;28;20448;-70
2023/09/18 13:01:49;;;;;;;3.63;1.63;;;22.40;99.90;;;;;;4964225;28;20513;-70
2023/09/18 13:04:37;;;;;;;3.80;1.40;;;22.40;99.90;;;;;;4961134;28;20461;-70
2023/09/18 13:07:27;;;;;;;8.77;2.37;;;22.40;99.90;;;;;;4967647;28;20479;-70
2023/09/18 13:10:14;;;;;;;6.13;2.10;;;22.40;99.90;;;;;;4970654;28;20962;-70
2023/09/18 13:13:01;;;;;;;4.50;1.47;;;22.40;99.90;;;;;;4969352;28;20502;-70
2023/09/18 13:15:47;;;;;;;6.93;1.90;;;22.60;99.90;;;;;;4968961;28;20457;-70
2023/09/18 13:18:32;;;;;;;4.20;1.73;;;22.80;99.90;;;;;;4964722;28;20560;-70
2023/09/18 13:21:19;;;;;;;5.07;1.53;;;23.00;99.90;;;;;;4964405;28;21043;-70
2023/09/18 13:24:08;;;;;;;5.33;2.00;;;23.00;99.90;;;;;;4965505;28;20598;-70
2023/09/18 13:26:54;;;;;;;4.87;1.87;;;23.20;99.90;;;;;;4960888;28;20482;-70
2023/09/18 13:29:40;;;;;;;3.67;1.40;;;23.40;99.90;;;;;;4966647;28;20807;-70
2023/09/18 13:32:26;;;;;;;5.40;2.10;;;23.40;99.90;;;;;;4964513;28;20574;-70
2023/09/18 13:35:13;;;;;;;3.53;1.70;;;23.40;99.90;;;;;;4965668;28;20456;-70
2023/09/18 13:37:59;;;;;;;5.17;1.60;;;23.40;99.90;;;;;;4968000;28;20607;-70
2023/09/18 13:40:48;;;;;;;5.90;1.73;;;23.20;99.90;;;;;;4969340;28;20450;-70
2023/09/18 13:43:35;;;;;;;4.73;1.83;;;23.00;99.90;;;;;;4970162;28;20480;-70
2023/09/18 13:46:21;;;;;;;3.97;1.23;;;23.00;99.90;;;;;;4963242;28;20471;-70
2023/09/18 13:49:06;;;;;;;4.83;1.60;;;23.00;99.90;;;;;;4964822;28;20810;-70
2023/09/18 13:51:52;;;;;;;6.93;1.60;;;23.10;99.90;;;;;;4964260;28;20452;-70
2023/09/18 13:54:38;;;;;;;3.27;1.73;;;23.20;99.90;;;;;;4962845;28;20479;-70
2023/09/18 13:57:28;;;;;;;4.30;1.50;;;23.20;99.90;;;;;;4964594;28;20472;-70
2023/09/18 14:00:14;;;;;;;2.53;1.17;;;23.30;99.90;;;;;;4963089;28;20452;-70
2023/09/18 14:03:00;;;;;;;4.33;1.43;;;23.30;99.90;;;;;;4961563;28;20973;-70
2023/09/18 14:05:46;;;;;;;4.20;1.40;;;23.20;99.90;;;;;;4974395;28;20583;-70
2023/09/18 14:08:32;;;;;;;7.00;1.63;;;23.10;99.90;;;;;;4963821;28;20558;-70
2023/09/18 14:11:18;;;;;;;6.80;1.50;;;23.20;99.90;;;;;;4967429;28;20973;-70
2023/09/18 14:14:04;;;;;;;3.37;1.40;;;23.40;99.90;;;;;;4967168;28;20518;-70
2023/09/18 14:16:51;;;;;;;5.70;1.40;;;23.50;99.90;;;;;;4967587;28;20582;-70
2023/09/18 14:19:38;;;;;;;5.03;1.63;;;23.60;99.90;;;;;;4969067;28;20448;-71
2023/09/18 14:22:23;;;;;;;9.20;1.70;;;23.70;99.90;;;;;;4965551;28;20444;-72
2023/09/18 14:25:11;;;;;;;4.47;1.13;;;23.90;99.90;;;;;;4970110;28;21563;-70
2023/09/18 14:27:56;;;;;;;5.67;1.67;;;24.20;99.90;;;;;;4968390;28;20484;-70